Time;durP1;ratioP1;P1;durP2;ratioP2;P2;SDS_P1;SDS_P2;PMS_P1;PMS_P2;Temp;Humidity;BMP_temperature;BMP_pressure;BME280_temperature;BME280_humidity;BME280_pressure;Samples;Min_cycle;Max_cycle;Signal;HPM_P1;HPM_P2
2021/12/08 00:01:16;;;;;;;4.57;4.10;;;19.70;39.50;;;23.38;26.51;99950.56;5061058;28;20055;-77
2021/12/08 00:03:41;;;;;;;;;;;19.70;39.50;;;23.48;26.12;99938.09;5095255;28;20046;-76
2021/12/08 00:06:08;;;;;;;4.63;4.00;;;19.70;39.50;;;23.42;26.38;99935.13;5113095;28;19915;-76
2021/12/08 00:08:34;;;;;;;5.35;4.25;;;19.70;39.50;;;23.37;26.37;99924.00;5111986;28;20044;-76
2021/12/08 00:13:35;;;;;;;4.95;4.13;;;19.70;39.50;;;23.37;26.38;99929.34;5094037;28;20054;-76
2021/12/08 00:16:09;;;;;;;5.40;4.00;;;19.70;39.50;;;23.34;26.32;99909.13;5094374;28;20047;-76
2021/12/08 00:18:37;;;;;;;5.30;4.68;;;19.70;39.50;;;23.36;26.35;99901.84;5075600;28;20048;-76
2021/12/08 00:21:07;;;;;;;4.97;4.13;;;19.70;39.50;;;23.32;26.47;99900.41;5094476;28;20443;-76
2021/12/08 00:23:33;;;;;;;3.57;3.10;;;19.70;39.50;;;23.37;26.33;99884.88;5094914;28;20063;-76
2021/12/08 00:25:59;;;;;;;4.68;4.20;;;19.70;39.50;;;23.38;26.31;99872.38;5094429;28;20055;-76
2021/12/08 00:28:26;;;;;;;6.47;4.35;;;19.70;39.50;;;23.34;26.21;99861.13;5112707;28;20114;-76
2021/12/08 00:30:56;;;;;;;5.47;4.30;;;19.70;39.50;;;23.36;26.19;99835.16;5094213;28;20115;-76
2021/12/08 00:33:22;;;;;;;5.10;4.32;;;19.70;39.50;;;23.34;26.48;99813.13;5094418;28;20048;-76
2021/12/08 00:35:50;;;;;;;5.15;4.32;;;19.70;39.50;;;23.33;26.32;99807.91;5077389;28;20055;-76
2021/12/08 00:38:17;;;;;;;4.85;4.35;;;19.70;39.50;;;23.34;26.18;99804.25;5094523;28;20574;-76
2021/12/08 00:40:44;;;;;;;5.35;4.43;;;19.70;40.00;;;23.35;26.38;99812.13;5076123;28;20059;-76
2021/12/08 00:43:10;;;;;;;4.88;4.35;;;19.70;39.50;;;23.34;26.48;99831.78;5094204;28;20044;-76
2021/12/08 00:45:36;;;;;;;5.43;4.20;;;19.70;39.50;;;23.33;26.33;99824.75;5094286;28;20479;-76
2021/12/08 00:48:02;;;;;;;4.95;4.30;;;19.70;39.50;;;23.33;26.36;99829.25;5094482;28;20044;-76
2021/12/08 00:50:34;;;;;;;5.75;4.35;;;19.70;39.50;;;23.31;26.43;99819.53;5079805;28;20046;-76
2021/12/08 00:53:00;;;;;;;5.25;4.40;;;19.70;39.50;;;23.34;26.36;99821.13;5064117;28;20051;-76
2021/12/08 00:55:27;;;;;;;5.13;4.40;;;19.70;39.50;;;23.33;26.25;99829.25;5077068;28;20400;-76
2021/12/08 00:57:54;;;;;;;4.97;4.28;;;19.70;39.50;;;23.30;26.37;99825.88;5115913;28;20040;-77
2021/12/08 01:00:31;;;;;;;4.55;3.97;;;19.70;39.50;;;23.32;26.36;99831.06;5096957;28;20048;-76
2021/12/08 01:02:59;;;;;;;5.05;4.55;;;19.70;39.50;;;23.32;26.48;99839.06;5098064;28;20384;-77
2021/12/08 01:05:30;;;;;;;4.85;4.40;;;19.70;39.50;;;23.30;26.57;99844.56;5080282;28;20039;-76
2021/12/08 01:07:57;;;;;;;;;;;19.70;39.50;;;23.41;26.26;99832.09;5098590;28;20048;-76
2021/12/08 01:10:27;;;;;;;4.43;3.90;;;19.70;39.50;;;23.36;26.32;99845.00;5097245;28;19931;-76
2021/12/08 01:12:53;;;;;;;4.60;4.00;;;19.70;39.50;;;23.31;26.17;99843.56;5097395;28;20552;-77
2021/12/08 01:15:20;;;;;;;4.25;3.85;;;19.70;39.60;;;23.32;26.42;99844.38;5079010;28;20126;-76
2021/12/08 01:17:46;;;;;;;4.43;3.95;;;19.70;39.60;;;23.32;26.20;99852.38;5078295;28;20448;-77
2021/12/08 01:20:14;;;;;;;5.22;4.43;;;19.70;39.60;;;23.33;26.34;99839.91;5096872;28;20047;-76
2021/12/08 01:22:43;;;;;;;5.30;4.43;;;19.70;39.50;;;23.33;26.15;99835.41;5079258;28;20052;-76
2021/12/08 01:25:08;;;;;;;5.53;4.30;;;19.60;39.50;;;23.31;26.44;99818.72;5095808;28;20127;-76
2021/12/08 01:27:34;;;;;;;6.00;4.53;;;19.60;39.50;;;23.33;26.21;99818.59;5097201;28;20539;-76
2021/12/08 01:30:01;;;;;;;4.60;4.15;;;19.70;39.50;;;23.31;26.19;99810.72;5115909;28;20051;-76
2021/12/08 01:32:27;;;;;;;4.28;3.75;;;19.70;39.50;;;23.33;26.28;99822.09;5095790;28;20078;-76
2021/12/08 01:34:53;;;;;;;5.40;4.40;;;19.70;39.50;;;23.31;26.30;99800.88;5097098;28;20044;-76
2021/12/08 01:37:20;;;;;;;5.38;4.25;;;19.70;39.50;;;23.33;26.41;99799.91;5080180;28;20132;-76
2021/12/08 01:39:47;;;;;;;4.82;4.05;;;19.70;39.50;;;23.31;26.42;99792.03;5096654;28;20475;-76
2021/12/08 01:42:24;;;;;;;4.38;3.92;;;19.70;39.50;;;23.34;26.23;99782.91;5096955;28;20089;-76
2021/12/08 01:47:35;;;;;;;4.78;4.25;;;19.70;39.50;;;23.31;26.24;99760.88;5099442;28;20055;-76
2021/12/08 01:50:00;;;;;;;4.10;3.65;;;19.70;39.50;;;23.33;26.28;99765.25;5095675;28;20415;-76
2021/12/08 01:52:26;;;;;;;5.03;4.10;;;19.70;39.50;;;23.33;26.46;99759.91;5114907;28;20078;-76
2021/12/08 01:54:52;;;;;;;4.90;4.28;;;19.70;39.50;;;23.30;26.40;99748.53;5096836;28;20055;-76
2021/12/08 01:57:18;;;;;;;4.40;3.97;;;19.70;39.50;;;23.32;26.41;99761.69;5114759;28;20062;-76
2021/12/08 01:59:44;;;;;;;4.57;4.10;;;19.70;39.50;;;23.34;26.12;99748.22;5095301;28;20040;-76
2021/12/08 02:02:11;;;;;;;4.93;4.20;;;19.60;39.50;;;23.32;26.31;99737.69;5096645;28;20428;-76
2021/12/08 02:04:37;;;;;;;5.07;3.97;;;19.70;39.50;;;23.32;26.24;99732.38;5096868;28;20036;-76
2021/12/08 02:07:03;;;;;;;4.60;3.80;;;19.70;39.50;;;23.31;26.34;99730.69;5079712;28;20052;-76
2021/12/08 02:09:29;;;;;;;4.63;4.22;;;19.70;39.50;;;23.30;26.45;99723.66;5096437;28;20407;-76
2021/12/08 02:11:56;;;;;;;4.55;4.10;;;19.70;39.50;;;23.29;26.23;99716.66;5062661;28;20399;-76
2021/12/08 02:14:22;;;;;;;5.03;4.22;;;19.70;39.50;;;23.34;26.28;99716.22;5096707;28;20055;-76
2021/12/08 02:16:54;;;;;;;4.82;4.00;;;19.70;39.50;;;23.32;26.35;99703.03;5079292;28;20078;-76
2021/12/08 02:19:21;;;;;;;4.72;4.05;;;19.70;39.50;;;23.33;26.41;99704.72;5115329;28;20364;-76
2021/12/08 02:21:52;;;;;;;5.00;4.35;;;19.70;39.50;;;23.30;26.37;99692.53;5114516;28;20055;-76
2021/12/08 02:24:18;;;;;;;5.30;4.43;;;19.70;39.50;;;23.32;26.22;99681.69;5097055;28;20048;-76
2021/12/08 02:26:46;;;;;;;4.72;4.13;;;19.70;39.50;;;23.31;26.25;99694.19;5096308;28;20134;-76
2021/12/08 02:29:21;;;;;;;4.88;4.38;;;19.70;39.50;;;23.33;26.47;99679.88;5096147;28;20072;-76
2021/12/08 02:31:58;;;;;;;5.05;4.55;;;19.70;39.50;;;23.28;26.42;99675.78;5079731;28;20139;-76
2021/12/08 02:48:07;;;;;;;4.30;3.90;;;19.70;39.50;;;23.30;26.27;99646.31;5098450;28;20047;-76
2021/12/08 02:50:39;;;;;;;4.60;4.00;;;19.70;39.50;;;23.30;26.47;99641.84;5094284;28;20048;-76
2021/12/08 02:53:09;;;;;;;4.72;4.28;;;19.70;39.50;;;23.28;26.58;99632.28;5078883;28;20432;-76
2021/12/08 02:55:36;;;;;;;5.18;4.22;;;19.70;39.50;;;23.30;26.30;99624.97;5062232;28;20482;-76
2021/12/08 02:58:04;;;;;;;5.38;4.38;;;19.70;39.40;;;23.32;26.57;99631.00;5093712;28;20044;-77
2021/12/08 03:00:39;;;;;;;4.38;3.95;;;19.80;39.50;;;23.34;26.25;99630.88;5078805;28;20052;-76
2021/12/08 03:03:07;;;;;;;4.53;3.90;;;19.70;39.40;;;23.35;26.30;99624.56;5113994;28;20052;-76
2021/12/08 03:05:33;;;;;;;4.05;3.65;;;19.70;39.40;;;23.34;26.38;99626.41;5095976;28;20039;-76
2021/12/08 03:08:03;;;;;;;5.22;4.13;;;19.70;39.40;;;23.37;26.39;99631.47;5078542;28;20059;-76
2021/12/08 03:10:37;;;;;;;4.57;3.80;;;19.70;39.40;;;23.37;26.44;99636.78;5094863;28;20051;-76
2021/12/08 03:13:05;;;;;;;4.53;4.00;;;19.70;39.40;;;23.39;26.16;99634.81;5094646;28;20056;-77
2021/12/08 03:15:34;;;;;;;4.13;3.63;;;19.80;39.40;;;23.35;26.34;99629.91;5095132;28;20097;-76
2021/12/08 03:18:01;;;;;;;5.65;4.22;;;19.80;39.40;;;23.40;26.29;99627.66;5094914;28;20058;-76
2021/12/08 03:20:39;;;;;;;4.60;3.78;;;19.80;39.40;;;23.39;26.28;99618.81;5095275;28;20047;-76
2021/12/08 03:23:13;;;;;;;4.55;3.97;;;19.80;39.40;;;23.41;26.35;99624.00;5113715;28;20048;-76
2021/12/08 03:25:43;;;;;;;4.10;3.70;;;19.80;39.30;;;23.43;26.17;99620.22;5078651;28;20047;-76
2021/12/08 03:28:19;;;;;;;4.80;3.92;;;19.80;39.30;;;23.41;26.49;99605.34;5095801;28;20080;-76
2021/12/08 03:31:04;;;;;;;4.68;4.18;;;19.80;39.30;;;23.46;26.32;99617.25;5094480;28;20047;-76
2021/12/08 03:33:31;;;;;;;4.85;4.22;;;19.80;39.30;;;23.44;26.26;99605.91;5098188;28;20103;-76
2021/12/08 03:35:58;;;;;;;4.22;3.83;;;19.90;39.40;;;23.45;26.33;99607.56;5093940;28;20044;-77
2021/12/08 03:38:26;;;;;;;4.32;3.92;;;19.90;39.30;;;23.46;26.30;99587.09;5093441;28;20139;-77
2021/12/08 03:40:53;;;;;;;4.43;4.03;;;19.90;39.30;;;23.46;26.28;99592.41;5095091;28;20055;-76
2021/12/08 03:43:20;;;;;;;5.30;3.97;;;19.90;39.30;;;23.49;26.27;99606.31;5095464;28;20051;-76
2021/12/08 03:45:49;;;;;;;4.43;3.63;;;19.90;39.30;;;23.48;26.35;99601.94;5094936;28;20548;-76
2021/12/08 03:48:24;;;;;;;4.20;3.65;;;19.90;39.30;;;23.47;26.31;99608.28;5094157;28;20076;-77
2021/12/08 03:50:51;;;;;;;4.90;4.32;;;19.90;39.20;;;23.51;26.26;99611.50;5112964;28;20395;-76
2021/12/08 03:53:17;;;;;;;4.72;4.22;;;20.00;39.30;;;23.51;26.05;99614.19;5094864;28;20046;-76
2021/12/08 03:55:46;;;;;;;4.55;3.72;;;19.90;39.20;;;23.52;26.35;99610.50;5075231;28;20044;-76
2021/12/08 03:58:12;;;;;;;4.65;4.20;;;19.90;39.20;;;23.51;26.23;99600.84;5094749;28;20046;-76
2021/12/08 04:00:40;;;;;;;4.20;3.80;;;20.00;39.20;;;23.50;26.31;99615.16;5113000;28;20090;-76
2021/12/08 04:03:07;;;;;;;5.35;4.05;;;20.00;39.20;;;23.53;26.18;99609.53;5095128;28;20052;-76
2021/12/08 04:08:30;;;;;;;4.53;3.72;;;19.90;39.10;;;23.56;25.98;99627.94;5097582;28;20491;-76
2021/12/08 04:11:00;;;;;;;4.22;3.70;;;20.00;39.20;;;23.56;26.30;99629.75;5112855;28;20076;-76
2021/12/08 04:13:37;;;;;;;5.40;4.13;;;20.00;39.10;;;23.58;25.98;99630.47;5092745;28;20059;-77
2021/12/08 04:16:04;;;;;;;4.35;3.83;;;20.00;39.10;;;23.61;26.19;99643.53;5094638;28;20047;-76
2021/12/08 04:18:31;;;;;;;4.50;4.10;;;20.00;39.10;;;23.59;26.35;99637.47;5074870;28;20055;-76
2021/12/08 04:21:00;;;;;;;4.60;4.07;;;20.00;39.10;;;23.56;26.13;99643.94;5077672;28;20055;-76
2021/12/08 04:23:32;;;;;;;4.28;3.10;;;20.00;39.10;;;23.58;26.00;99636.63;5075011;28;20045;-76
2021/12/08 04:25:59;;;;;;;4.18;3.78;;;20.00;39.10;;;23.60;26.01;99641.81;5099172;28;20039;-76
2021/12/08 04:28:30;;;;;;;4.65;3.83;;;20.00;39.10;;;23.60;26.15;99647.16;5097909;28;20039;-77
2021/12/08 04:31:01;;;;;;;4.55;4.00;;;20.00;39.10;;;23.63;26.18;99645.06;5098044;28;20046;-76
2021/12/08 04:33:28;;;;;;;4.53;4.10;;;20.00;39.10;;;23.63;26.29;99638.88;5116003;28;20138;-76
2021/12/08 04:35:55;;;;;;;4.18;3.70;;;20.00;39.10;;;23.62;26.04;99640.72;5116250;28;20039;-76
2021/12/08 04:38:31;;;;;;;4.53;4.03;;;20.00;39.10;;;23.63;26.05;99630.88;5097695;28;20097;-76
2021/12/08 04:41:04;;;;;;;4.70;3.88;;;20.00;39.10;;;23.63;26.22;99628.22;5098442;28;20138;-76
2021/12/08 04:44:19;;;;;;;5.10;4.00;;;20.00;39.10;;;23.63;26.29;99628.22;5098478;28;20044;-76
2021/12/08 04:52:06;;;;;;;6.13;4.18;;;20.00;39.00;;;23.64;26.21;99630.72;5083914;28;21374;-76
2021/12/08 05:03:33;;;;;;;4.07;3.67;;;20.00;39.00;;;23.62;26.09;99623.84;5098138;28;20044;-76
2021/12/08 05:06:06;;;;;;;3.85;3.45;;;20.00;39.00;;;23.62;26.06;99621.16;5097629;28;20398;-76
2021/12/08 05:08:42;;;;;;;4.32;3.92;;;20.00;39.00;;;23.63;26.18;99634.38;5097302;28;20055;-76
2021/12/08 05:11:33;;;;;;;3.58;3.28;;;20.00;39.00;;;23.56;26.29;99613.75;5098272;28;20075;-76
2021/12/08 05:14:07;;;;;;;4.07;3.10;;;20.00;39.00;;;23.62;26.02;99603.34;5097424;28;20039;-76
2021/12/08 05:16:37;;;;;;;4.13;3.70;;;20.00;39.00;;;23.64;26.12;99611.22;5080437;28;20056;-76
2021/12/08 05:19:09;;;;;;;4.05;3.65;;;20.00;39.00;;;23.64;26.06;99614.72;5097395;28;20493;-76
2021/12/08 05:22:16;;;;;;;4.18;3.78;;;20.00;39.00;;;23.62;26.16;99615.84;5097601;28;20083;-76
2021/12/08 05:24:48;;;;;;;4.80;4.13;;;20.00;39.00;;;23.62;26.15;99622.03;5080244;28;20060;-76
2021/12/08 05:27:23;;;;;;;3.88;3.40;;;20.00;39.00;;;23.62;26.08;99615.84;5080401;28;20499;-76
2021/12/08 05:30:01;;;;;;;4.07;3.67;;;20.00;39.00;;;23.60;26.26;99615.97;5080444;28;20043;-76
2021/12/08 05:32:27;;;;;;;4.53;4.03;;;20.00;39.00;;;23.64;25.95;99613.88;5115244;28;20079;-76
2021/12/08 05:34:53;;;;;;;4.70;3.92;;;20.00;39.00;;;23.63;26.28;99610.34;5096209;28;20522;-76
2021/12/08 05:37:23;;;;;;;4.50;3.72;;;20.00;39.00;;;23.63;26.07;99615.69;5096966;28;20099;-76
2021/12/08 05:39:49;;;;;;;4.50;3.83;;;20.00;39.00;;;23.66;26.23;99623.41;5096397;28;20047;-76
2021/12/08 05:42:21;;;;;;;4.95;3.85;;;20.00;39.00;;;23.63;25.97;99618.38;5097319;28;20047;-76
2021/12/08 05:44:47;;;;;;;4.75;4.13;;;20.00;39.00;;;23.66;26.01;99618.09;5080132;28;20920;-76
2021/12/08 05:47:18;;;;;;;3.95;3.55;;;20.10;39.10;;;23.66;26.10;99625.25;5097198;28;20388;-76
2021/12/08 05:49:45;;;;;;;3.72;3.38;;;20.00;39.00;;;23.66;26.17;99623.41;5096972;28;20047;-76
2021/12/08 05:52:11;;;;;;;4.10;3.70;;;20.00;39.00;;;23.63;26.08;99621.03;5078121;28;20135;-76
2021/12/08 05:54:40;;;;;;;3.90;3.50;;;20.00;39.00;;;23.65;26.34;99635.06;5096778;28;20114;-76
2021/12/08 05:57:24;;;;;;;4.53;3.88;;;20.00;39.00;;;23.66;26.17;99639.44;5096651;28;20140;-76
2021/12/08 05:59:51;;;;;;;4.22;3.50;;;20.00;39.00;;;23.70;26.00;99637.31;5096889;28;20514;-77
2021/12/08 06:02:29;;;;;;;4.18;3.63;;;20.10;39.10;;;23.66;26.11;99635.94;5096637;28;20484;-76
2021/12/08 06:04:55;;;;;;;4.57;3.88;;;20.00;39.00;;;23.66;26.08;99627.94;5079619;28;20055;-76
2021/12/08 06:07:22;;;;;;;4.38;3.50;;;20.00;39.00;;;23.67;26.02;99633.13;5095946;28;20058;-76
2021/12/08 06:09:58;;;;;;;4.20;3.80;;;20.00;39.00;;;23.63;26.09;99630.88;5095208;28;20052;-77
2021/12/08 06:12:25;;;;;;;4.35;3.72;;;20.00;39.00;;;23.62;26.02;99626.50;5096249;28;20493;-77
2021/12/08 06:14:55;;;;;;;3.95;3.53;;;20.00;39.00;;;23.65;26.27;99634.22;5079643;28;20395;-77
2021/12/08 06:17:29;;;;;;;3.65;3.25;;;20.00;39.00;;;23.66;26.21;99633.25;5096835;28;20048;-77
2021/12/08 06:19:56;;;;;;;4.75;3.85;;;20.10;39.10;;;23.65;25.95;99623.56;5096152;28;20054;-76
2021/12/08 06:22:24;;;;;;;3.78;3.40;;;20.00;39.00;;;23.67;26.04;99632.25;5079473;28;20411;-76
2021/12/08 06:24:50;;;;;;;4.35;3.95;;;20.00;39.00;;;23.66;26.28;99634.09;5077474;28;20127;-76
2021/12/08 06:27:16;;;;;;;3.65;3.35;;;20.00;39.00;;;23.70;26.19;99648.00;5079346;28;20126;-76
2021/12/08 06:29:45;;;;;;;4.20;3.67;;;20.00;39.00;;;23.70;26.19;99645.31;5094320;28;20448;-76
2021/12/08 06:32:13;;;;;;;3.88;3.47;;;20.00;39.00;;;23.64;26.27;99632.56;5096042;28;20048;-76
2021/12/08 06:34:44;;;;;;;4.15;3.70;;;20.00;39.00;;;23.67;26.16;99637.59;5079191;28;20063;-76
2021/12/08 06:37:24;;;;;;;4.25;3.40;;;20.00;39.00;;;23.65;26.18;99636.91;5096319;28;20101;-76
2021/12/08 06:40:03;;;;;;;4.53;3.70;;;20.00;39.00;;;23.65;25.95;99637.72;5094652;28;20407;-76
2021/12/08 06:42:35;;;;;;;4.50;3.60;;;20.10;39.00;;;23.68;26.12;99640.13;5114565;28;20052;-76
2021/12/08 06:45:03;;;;;;;4.55;3.83;;;20.10;39.00;;;23.73;25.98;99647.72;5092007;28;20048;-76
2021/12/08 06:47:33;;;;;;;4.43;3.65;;;20.10;39.00;;;23.72;26.11;99658.53;5062500;28;20431;-76
2021/12/08 06:50:05;;;;;;;4.15;3.42;;;20.10;39.00;;;23.71;26.09;99660.38;5095564;28;20055;-76
2021/12/08 06:52:38;;;;;;;4.35;3.95;;;20.10;39.10;;;23.72;26.09;99663.88;5095599;28;20051;-76
2021/12/08 06:55:24;;;;;;;3.92;3.60;;;20.10;39.00;;;23.68;26.03;99664.13;5092173;28;20507;-76
2021/12/08 06:57:57;;;;;;;4.22;3.50;;;20.10;39.30;;;23.68;26.26;99663.31;5093657;28;20135;-76
2021/12/08 07:00:51;;;;;;;3.90;3.47;;;20.10;39.00;;;23.72;25.90;99669.19;5078323;28;20479;-76
2021/12/08 07:08:50;;;;;;;3.45;3.15;;;20.10;39.10;;;23.68;26.06;99668.66;5097174;28;20054;-76
2021/12/08 07:11:22;;;;;;;4.20;3.60;;;20.10;39.10;;;23.68;26.00;99666.81;5095523;28;20485;-76
2021/12/08 07:13:52;;;;;;;3.80;3.40;;;20.10;39.20;;;23.70;26.03;99677.34;5078850;28;20058;-76
2021/12/08 07:16:28;;;;;;;4.25;3.85;;;20.10;39.10;;;23.72;25.97;99678.03;5095570;28;20082;-76
2021/12/08 07:19:08;;;;;;;3.92;3.55;;;20.10;39.00;;;23.71;26.13;99665.69;5095417;28;20071;-76
2021/12/08 07:21:42;;;;;;;4.78;3.92;;;20.10;39.00;;;23.71;26.15;99667.53;5096221;28;20040;-76
2021/12/08 07:24:21;;;;;;;3.88;3.47;;;20.10;39.10;;;23.72;26.19;99658.53;5095349;28;20123;-76
2021/12/08 07:26:52;;;;;;;3.45;3.10;;;20.10;39.00;;;23.73;26.07;99662.91;5094669;28;20120;-76
2021/12/08 07:29:25;;;;;;;3.92;3.63;;;20.10;39.00;;;23.72;26.28;99658.53;5113677;28;20073;-76
2021/12/08 07:32:00;;;;;;;3.58;3.28;;;20.10;39.00;;;23.71;26.14;99657.69;5078509;28;20040;-76
2021/12/08 07:34:28;;;;;;;4.13;3.60;;;20.10;39.00;;;23.73;26.02;99668.22;5095228;28;20041;-76
2021/12/08 07:37:05;;;;;;;3.88;3.25;;;20.10;39.10;;;23.72;25.83;99671.88;5078176;28;20479;-76
2021/12/08 07:39:43;;;;;;;4.80;3.72;;;20.10;39.10;;;23.68;26.21;99663.31;5094651;28;20036;-76
2021/12/08 07:42:20;;;;;;;3.78;3.30;;;20.10;39.00;;;23.72;26.07;99675.38;5112007;28;20498;-76
2021/12/08 07:44:51;;;;;;;4.10;3.70;;;20.10;39.00;;;23.74;26.07;99672.56;5095001;28;20044;-76
2021/12/08 07:47:20;;;;;;;3.90;3.45;;;20.10;39.00;;;23.69;26.09;99659.66;5094578;28;20433;-76
2021/12/08 07:49:58;;;;;;;3.90;3.50;;;20.10;39.10;;;23.72;26.02;99669.19;5077691;28;20454;-76
2021/12/08 07:52:47;;;;;;;3.80;3.28;;;20.10;39.10;;;23.68;26.29;99657.97;5076174;28;20120;-76
2021/12/08 07:55:25;;;;;;;4.38;3.90;;;20.10;39.10;;;23.73;26.23;99666.38;5076531;28;20062;-76
2021/12/08 07:57:52;;;;;;;3.83;3.30;;;20.10;39.10;;;23.68;26.01;99656.13;5093365;28;20499;-76
2021/12/08 08:00:32;;;;;;;4.20;3.80;;;20.10;39.10;;;23.72;25.90;99664.69;5076619;28;20043;-76
2021/12/08 08:02:59;;;;;;;3.78;3.40;;;20.10;39.10;;;23.73;26.10;99673.56;5095084;28;20043;-76
2021/12/08 08:05:32;;;;;;;4.07;3.70;;;20.10;39.10;;;23.71;26.19;99676.38;5094345;28;20046;-76
2021/12/08 08:08:07;;;;;;;3.92;3.38;;;20.10;39.10;;;23.72;26.13;99682.53;5075757;28;20048;-76
2021/12/08 08:10:42;;;;;;;4.13;3.50;;;20.10;39.10;;;23.73;26.21;99682.41;5094663;28;20052;-76
2021/12/08 08:13:10;;;;;;;3.90;3.50;;;20.10;39.10;;;23.74;26.17;99686.78;5077707;28;20099;-76
2021/12/08 08:15:44;;;;;;;3.70;3.38;;;20.10;39.10;;;23.76;26.16;99697.31;5076723;28;20052;-76
2021/12/08 08:18:14;;;;;;;3.55;3.25;;;20.10;39.10;;;23.71;26.12;99696.91;5094880;28;20051;-76
2021/12/08 08:20:48;;;;;;;3.88;3.38;;;20.10;39.10;;;23.75;26.07;99698.28;5076535;28;20060;-76
2021/12/08 08:23:19;;;;;;;3.83;3.42;;;20.10;39.10;;;23.73;26.11;99684.25;5094586;28;20483;-76
2021/12/08 08:25:47;;;;;;;3.00;2.70;;;20.10;39.10;;;23.77;26.11;99702.50;5077885;28;20047;-76
2021/12/08 08:28:16;;;;;;;3.95;3.17;;;20.10;39.10;;;23.74;26.00;99691.25;5093925;28;20432;-76
2021/12/08 08:31:13;;;;;;;3.95;3.40;;;20.10;39.10;;;23.75;26.26;99688.44;5076633;28;20047;-76
2021/12/08 08:33:41;;;;;;;3.50;3.20;;;20.10;39.10;;;23.77;26.08;99696.31;5059652;28;20056;-76
2021/12/08 08:36:16;;;;;;;3.65;3.10;;;20.10;39.10;;;23.75;25.97;99703.63;5094187;28;20052;-76
2021/12/08 08:38:55;;;;;;;3.97;3.58;;;20.10;39.10;;;23.73;26.04;99702.94;5077258;28;20139;-77
2021/12/08 08:41:39;;;;;;;4.13;3.22;;;20.10;39.00;;;23.75;26.06;99715.13;5092713;28;20056;-76
2021/12/08 08:44:34;;;;;;;4.18;3.55;;;20.10;39.00;;;23.75;26.18;99711.63;5076212;28;20095;-75
2021/12/08 08:47:17;;;;;;;4.40;3.25;;;20.10;39.00;;;23.70;26.12;99709.38;5108227;28;20130;-75
2021/12/08 08:49:44;;;;;;;4.82;3.65;;;20.10;38.90;;;23.75;25.80;99719.63;5093958;28;20138;-75
2021/12/08 08:52:26;;;;;;;3.80;3.30;;;20.10;38.90;;;23.74;26.10;99729.47;5094083;28;20040;-75
2021/12/08 08:55:03;;;;;;;3.63;3.22;;;20.10;38.90;;;23.73;26.09;99727.78;5077153;28;20047;-76
2021/12/08 08:57:36;;;;;;;4.65;3.80;;;20.10;38.90;;;23.75;26.13;99716.97;5093271;28;20060;-76
2021/12/08 09:00:19;;;;;;;3.72;3.33;;;20.10;38.90;;;23.74;26.24;99713.47;5075706;28;20498;-76
2021/12/08 09:02:48;;;;;;;4.10;3.42;;;20.10;38.90;;;23.73;25.82;99703.75;5058315;28;20059;-75
2021/12/08 09:05:29;;;;;;;3.72;3.35;;;20.10;38.90;;;23.71;26.07;99713.75;5092750;28;20059;-76
2021/12/08 09:07:57;;;;;;;;;;;20.10;38.90;;;23.83;25.92;99712.63;5077374;28;20419;-75
2021/12/08 09:10:36;;;;;;;4.05;3.65;;;20.10;38.90;;;23.79;26.03;99716.53;5094981;28;20278;-76
2021/12/08 09:13:13;;;;;;;3.72;3.40;;;20.10;38.90;;;23.76;25.90;99711.50;5080340;28;20044;-75
2021/12/08 09:15:46;;;;;;;3.78;3.33;;;20.10;38.90;;;23.74;26.22;99721.47;5097002;28;20054;-75
2021/12/08 09:18:21;;;;;;;3.40;3.10;;;20.10;38.90;;;23.73;26.03;99735.78;5095956;28;20048;-75
2021/12/08 09:21:08;;;;;;;3.75;3.35;;;20.10;38.90;;;23.76;25.81;99732.84;5096001;28;20048;-75
2021/12/08 09:24:13;;;;;;;4.30;3.35;;;20.10;38.90;;;23.76;25.81;99732.84;5098305;28;20471;-75
2021/12/08 09:26:47;;;;;;;3.83;3.38;;;20.10;38.90;;;23.75;25.92;99735.66;5092133;28;20486;-75
2021/12/08 09:29:18;;;;;;;3.72;2.90;;;20.10;38.90;;;23.75;25.88;99744.50;5097086;28;20044;-76
2021/12/08 09:31:55;;;;;;;3.83;3.40;;;20.10;38.90;;;23.75;25.96;99744.50;5096946;28;20145;-75
2021/12/08 09:34:31;;;;;;;3.78;3.38;;;20.10;39.00;;;23.75;26.06;99747.16;5096801;28;20098;-75
2021/12/08 09:37:17;;;;;;;3.60;3.20;;;20.10;38.90;;;23.77;26.04;99755.03;5096947;28;20048;-75
2021/12/08 09:39:57;;;;;;;3.70;3.38;;;20.10;39.00;;;23.71;26.15;99742.25;5094607;28;20052;-75
2021/12/08 09:42:46;;;;;;;4.03;3.40;;;20.10;38.90;;;23.75;25.98;99746.31;5097049;28;20134;-75
2021/12/08 09:45:36;;;;;;;3.92;3.33;;;20.10;38.90;;;23.75;26.20;99746.31;5079481;28;20047;-76
2021/12/08 09:48:07;;;;;;;3.67;3.13;;;20.10;39.00;;;23.72;26.10;99746.59;5115007;28;20058;-76
2021/12/08 09:50:35;;;;;;;3.92;3.53;;;20.10;38.90;;;23.77;25.97;99749.69;5078047;28;20459;-76
2021/12/08 09:53:05;;;;;;;4.05;3.38;;;20.10;38.90;;;23.76;26.06;99742.69;5096597;28;20077;-76
2021/12/08 09:55:34;;;;;;;3.50;3.08;;;20.10;38.90;;;23.79;26.08;99742.38;5077661;28;20051;-76
2021/12/08 09:58:03;;;;;;;3.40;3.10;;;20.20;38.90;;;23.75;25.99;99728.47;5096921;28;20055;-76
2021/12/08 10:00:39;;;;;;;3.85;3.35;;;20.10;38.90;;;23.76;25.78;99732.84;5114712;28;20042;-76
2021/12/08 10:03:06;;;;;;;3.47;3.13;;;20.20;38.90;;;23.79;25.96;99740.56;5080244;28;20079;-76
2021/12/08 10:05:35;;;;;;;4.18;3.55;;;20.20;38.90;;;23.79;26.03;99737.91;5079402;28;20052;-76
2021/12/08 10:08:04;;;;;;;3.83;3.40;;;20.20;38.90;;;23.78;26.01;99724.69;5079802;28;20528;-76
2021/12/08 10:10:32;;;;;;;4.55;3.30;;;20.20;38.90;;;23.78;26.05;99724.69;5096250;28;20040;-76
2021/12/08 10:13:00;;;;;;;3.80;3.15;;;20.20;38.90;;;23.80;25.99;99738.72;5078473;28;20127;-76
2021/12/08 10:15:27;;;;;;;3.63;3.22;;;20.10;38.80;;;23.80;26.00;99731.56;5096534;28;20082;-76
2021/12/08 10:17:55;;;;;;;3.72;3.33;;;20.20;38.90;;;23.79;25.98;99729.03;5095207;28;20052;-76
2021/12/08 10:20:25;;;;;;;4.00;3.45;;;20.20;38.90;;;23.82;26.06;99740.31;5094584;28;20082;-76
2021/12/08 10:23:24;;;;;;;3.35;2.80;;;20.20;38.90;;;23.80;25.92;99730.72;5094117;28;20055;-76
2021/12/08 10:25:58;;;;;;;4.15;3.22;;;20.20;38.90;;;23.81;26.19;99741.25;5079136;28;20138;-76
2021/12/08 10:28:30;;;;;;;4.10;3.30;;;20.20;38.90;;;23.81;25.96;99743.94;5079173;28;20109;-76
2021/12/08 10:31:17;;;;;;;4.95;3.75;;;20.20;38.90;;;23.82;26.04;99732.31;5076317;28;20106;-76
2021/12/08 10:33:59;;;;;;;3.55;3.25;;;20.20;38.90;;;23.81;26.08;99733.25;5079313;28;20489;-76
2021/12/08 10:36:45;;;;;;;3.45;3.05;;;20.20;38.90;;;23.82;25.94;99739.47;5077348;28;20472;-76
2021/12/08 10:39:21;;;;;;;3.40;3.05;;;20.20;38.90;;;23.82;25.96;99747.47;5096701;28;20082;-76
2021/12/08 10:42:09;;;;;;;4.15;3.05;;;20.20;38.90;;;23.81;25.97;99741.25;5114148;28;20947;-76
2021/12/08 10:45:10;;;;;;;3.47;3.13;;;20.20;38.80;;;23.83;26.11;99736.66;5114385;28;20460;-76
2021/12/08 10:47:36;;;;;;;5.43;3.60;;;20.20;38.90;;;23.81;25.85;99725.25;5098247;28;20047;-76
2021/12/08 10:55:59;;;;;;;3.35;3.00;;;20.20;38.80;;;23.85;25.97;99724.00;5113961;28;20047;-76
2021/12/08 10:58:35;;;;;;;3.83;3.30;;;20.30;38.90;;;23.84;26.02;99733.00;5078551;28;20044;-76
2021/12/08 11:01:12;;;;;;;3.35;3.05;;;20.30;38.90;;;23.84;25.87;99730.34;5095572;28;20491;-76
2021/12/08 11:03:39;;;;;;;3.30;2.85;;;20.20;38.80;;;23.81;25.86;99719.09;5113311;28;20047;-76
2021/12/08 11:06:07;;;;;;;3.55;3.25;;;20.30;38.80;;;23.86;25.92;99722.19;5095072;28;20070;-76
2021/12/08 11:08:46;;;;;;;3.42;3.05;;;20.30;38.80;;;23.84;26.08;99724.16;5095176;28;20048;-76
2021/12/08 11:11:24;;;;;;;3.65;3.28;;;20.30;38.80;;;23.84;26.05;99713.50;5095133;28;20042;-76
2021/12/08 11:13:58;;;;;;;3.60;3.15;;;20.30;38.80;;;23.84;25.86;99718.84;5095141;28;20044;-76
2021/12/08 11:16:31;;;;;;;3.70;3.35;;;20.30;38.80;;;23.83;25.84;99717.97;5095364;28;20039;-76
2021/12/08 11:19:10;;;;;;;3.45;3.00;;;20.30;38.80;;;23.87;25.91;99721.19;5111977;28;20047;-76
2021/12/08 11:21:45;;;;;;;4.97;3.53;;;20.30;38.80;;;23.88;25.80;99722.06;5078190;28;20079;-76
2021/12/08 11:24:34;;;;;;;3.70;2.75;;;20.30;38.70;;;23.89;25.84;99727.25;5095123;28;20518;-76
2021/12/08 11:27:04;;;;;;;3.83;3.38;;;20.30;38.80;;;23.91;25.92;99730.63;5078669;28;20044;-76
2021/12/08 11:29:35;;;;;;;3.90;3.47;;;20.30;38.80;;;23.91;26.02;99725.28;5076297;28;20052;-76